createdAt,value
2022-12-25T00:02:51.788Z,101085.06
2022-12-25T00:07:54.685Z,101081.59
2022-12-25T00:12:58.905Z,101106.59
2022-12-25T00:18:01.727Z,101110.84
2022-12-25T00:23:04.566Z,101115.13
2022-12-25T00:28:08.678Z,101123.66
2022-12-25T00:33:11.541Z,101138.38
2022-12-25T00:38:14.307Z,101128.88
2022-12-25T00:43:18.474Z,101147.81
2022-12-25T00:48:21.197Z,101153.00
2022-12-25T00:53:24.761Z,101160.78
2022-12-25T00:58:30.352Z,101159.13
2022-12-25T01:03:33.168Z,101162.47
2022-12-25T01:08:37.597Z,101169.31
2022-12-25T01:13:41.660Z,101178.00
2022-12-25T01:18:46.619Z,101170.19
2022-12-25T01:23:50.528Z,101175.41
2022-12-25T01:28:54.969Z,101174.44
2022-12-25T01:33:57.850Z,101163.13
2022-12-25T01:39:01.165Z,101145.00
2022-12-25T01:44:07.602Z,101141.53
2022-12-25T01:49:15.823Z,101152.78
2022-12-25T01:54:21.475Z,101141.47
2022-12-25T01:59:26.211Z,101129.34
2022-12-25T02:04:39.525Z,101153.63
2022-12-25T02:09:43.234Z,101149.28
2022-12-25T02:14:49.053Z,101132.88
2022-12-25T02:20:04.388Z,101110.38
2022-12-25T02:25:16.855Z,101097.44
2022-12-25T02:30:22.135Z,101092.31
2022-12-25T02:35:28.770Z,101070.75
2022-12-25T02:40:34.126Z,101051.75
2022-12-25T02:45:59.210Z,101037.06
2022-12-25T02:51:23.151Z,101024.16
2022-12-25T02:56:44.127Z,101026.63
2022-12-25T03:02:06.059Z,101026.59
2022-12-25T03:07:11.546Z,101015.34
2022-12-25T03:12:17.843Z,101018.78
2022-12-25T03:17:22.243Z,100998.06
2022-12-25T03:22:45.535Z,101029.13
2022-12-25T03:27:50.408Z,101036.88
2022-12-25T03:33:23.288Z,101013.53
2022-12-25T03:38:49.329Z,101017.84
2022-12-25T03:44:12.952Z,101011.66
2022-12-25T03:49:40.706Z,100993.38
2022-12-25T03:55:02.289Z,100979.50
2022-12-25T04:00:23.927Z,100959.63
2022-12-25T04:05:45.734Z,100954.41
2022-12-25T04:11:06.184Z,100960.38
2022-12-25T04:16:26.485Z,100977.59
2022-12-25T04:21:48.304Z,100975.03
2022-12-25T04:27:08.775Z,100979.41
2022-12-25T04:32:29.232Z,101014.88
2022-12-25T04:37:33.471Z,101038.25
2022-12-25T04:42:36.371Z,101046.03
2022-12-25T04:47:39.243Z,101042.53
2022-12-25T04:52:43.813Z,101034.63
2022-12-25T04:57:46.642Z,101035.41
2022-12-25T05:02:49.591Z,101007.72
2022-12-25T05:07:54.073Z,101008.59
2022-12-25T05:12:56.922Z,101007.66
2022-12-25T05:17:59.863Z,100998.09
2022-12-25T05:23:04.254Z,100988.53
2022-12-25T05:28:07.069Z,100972.03
2022-12-25T05:33:09.876Z,100977.16
2022-12-25T05:38:14.047Z,100957.25
2022-12-25T05:43:16.874Z,100965.91
2022-12-25T05:48:19.838Z,100965.88
2022-12-25T05:53:24.160Z,100958.91
2022-12-25T05:58:27.124Z,100949.34
2022-12-25T06:03:30.164Z,100920.56
2022-12-25T06:08:35.066Z,100901.59
2022-12-25T06:13:38.342Z,100875.59
2022-12-25T06:18:42.944Z,100863.69
2022-12-25T06:23:47.505Z,100839.53
2022-12-25T06:28:50.512Z,100836.19
2022-12-25T06:33:53.419Z,100840.63
2022-12-25T06:38:57.887Z,100832.06
2022-12-25T06:44:01.987Z,100819.03
2022-12-25T06:49:05.095Z,100827.72
2022-12-25T06:54:10.045Z,100829.47
2022-12-25T06:59:13.302Z,100819.97
2022-12-25T07:04:18.560Z,100831.22
2022-12-25T07:09:22.905Z,100845.22
2022-12-25T07:14:25.829Z,100844.41
2022-12-25T07:19:28.693Z,100852.97
2022-12-25T07:24:32.946Z,100853.75
2022-12-25T07:29:36.010Z,100851.28
2022-12-25T07:34:38.941Z,100851.34
2022-12-25T07:39:43.256Z,100854.72
2022-12-25T07:44:46.168Z,100827.16
2022-12-25T07:49:49.142Z,100889.16
2022-12-25T07:54:53.511Z,100885.72
2022-12-25T07:59:56.431Z,100887.34
2022-12-25T08:04:59.416Z,100868.13
2022-12-25T08:10:03.836Z,100867.19
2022-12-25T08:15:07.834Z,100870.63
2022-12-25T08:20:11.289Z,100901.50
2022-12-25T08:25:16.187Z,100883.34
2022-12-25T08:30:19.345Z,100880.81
2022-12-25T08:35:22.280Z,100892.00
2022-12-25T08:40:26.605Z,100894.63
2022-12-25T08:45:34.770Z,100900.69
2022-12-25T08:50:38.169Z,100881.78
2022-12-25T08:55:43.026Z,100893.66
2022-12-25T09:00:45.968Z,100884.81
2022-12-25T09:05:49.031Z,100904.72
2022-12-25T09:10:53.334Z,100891.81
2022-12-25T09:15:56.358Z,100888.16
2022-12-25T09:21:00.607Z,100893.31
2022-12-25T09:26:06.567Z,100902.88
2022-12-25T09:31:09.682Z,100907.91
2022-12-25T09:36:12.994Z,100915.69
2022-12-25T09:41:22.417Z,100915.81
2022-12-25T09:46:36.454Z,100909.66
2022-12-25T09:51:41.580Z,100910.22
2022-12-25T09:56:46.016Z,100904.28
2022-12-25T10:01:59.477Z,100920.84
2022-12-25T10:07:08.765Z,100917.41
2022-12-25T10:12:27.097Z,100913.00
2022-12-25T10:17:37.798Z,100914.72
2022-12-25T10:22:43.204Z,100898.06
2022-12-25T10:27:50.911Z,100913.09
2022-12-25T10:32:54.330Z,100909.28
2022-12-25T10:38:00.463Z,100893.72
2022-12-25T10:43:10.108Z,100891.00
2022-12-25T10:48:20.544Z,100894.53
2022-12-25T10:53:25.276Z,100847.19
2022-12-25T10:58:32.127Z,100878.94
2022-12-25T11:03:36.916Z,100870.16
2022-12-25T11:08:40.249Z,100873.75
2022-12-25T11:13:50.564Z,100852.72
2022-12-25T11:18:55.179Z,100840.56
2022-12-25T11:24:00.478Z,100836.13
2022-12-25T11:29:23.026Z,100834.44
2022-12-25T11:34:31.522Z,100797.13
2022-12-25T11:39:36.742Z,100791.03
2022-12-25T11:44:46.316Z,100760.38
2022-12-25T11:49:58.598Z,100776.88
2022-12-25T11:55:07.028Z,100775.56
2022-12-25T12:00:16.599Z,100772.66
2022-12-25T12:05:23.413Z,100753.50
2022-12-25T12:10:33.559Z,100741.97
2022-12-25T12:15:42.832Z,100737.06
2022-12-25T12:20:45.849Z,100715.34
2022-12-25T12:25:50.031Z,100709.31
2022-12-25T12:31:05.879Z,100706.81
2022-12-25T12:36:12.764Z,100706.75
2022-12-25T12:41:18.157Z,100695.22
2022-12-25T12:46:30.613Z,100680.34
2022-12-25T12:51:35.613Z,100672.88
2022-12-25T12:56:38.768Z,100652.50
2022-12-25T13:01:49.627Z,100672.19
2022-12-25T13:06:57.066Z,100650.72
2022-12-25T13:12:00.252Z,100630.75
2022-12-25T13:17:08.123Z,100601.91
2022-12-25T13:22:24.409Z,100593.31
2022-12-25T13:27:29.012Z,100606.41
2022-12-25T13:32:34.964Z,100608.03
2022-12-25T13:37:38.481Z,100614.44
2022-12-25T13:42:41.479Z,100599.72
2022-12-25T13:47:51.383Z,100610.22
2022-12-25T13:52:59.213Z,100622.44
2022-12-25T13:58:04.502Z,100621.50
2022-12-25T14:03:09.367Z,100607.50
2022-12-25T14:08:17.096Z,100611.00
2022-12-25T14:13:21.796Z,100616.19
2022-12-25T14:18:26.810Z,100613.69
2022-12-25T14:23:33.160Z,100617.00
2022-12-25T14:28:37.784Z,100622.22
2022-12-25T14:33:42.945Z,100623.13
2022-12-25T14:38:46.073Z,100626.69
2022-12-25T14:43:53.567Z,100621.44
2022-12-25T14:49:02.305Z,100617.19
2022-12-25T14:54:06.584Z,100603.38
2022-12-25T14:59:17.757Z,100586.59
2022-12-25T15:04:22.436Z,100604.06
2022-12-25T15:09:26.084Z,100612.03
2022-12-25T15:14:30.127Z,100596.72
2022-12-25T15:19:38.810Z,100613.78
2022-12-25T15:24:42.138Z,100612.06
2022-12-25T15:30:09.373Z,100617.25
2022-12-25T15:35:15.136Z,100618.09
2022-12-25T15:40:19.703Z,100614.63
2022-12-25T15:45:24.352Z,100619.16
2022-12-25T15:50:29.326Z,100607.75
2022-12-25T15:55:32.370Z,100585.84
2022-12-25T16:00:35.260Z,100591.00
2022-12-25T16:05:39.662Z,100584.78
2022-12-25T16:10:42.625Z,100612.69
2022-12-25T16:15:46.024Z,100587.72
2022-12-25T16:20:50.576Z,100579.53
2022-12-25T16:25:53.513Z,100580.38
2022-12-25T16:30:56.478Z,100565.94
2022-12-25T16:36:00.846Z,100573.66
2022-12-25T16:41:03.795Z,100559.03
2022-12-25T16:46:10.150Z,100559.41
2022-12-25T16:51:16.448Z,100561.47
2022-12-25T16:56:21.223Z,100557.88
2022-12-25T17:01:24.907Z,100558.81
2022-12-25T17:06:29.757Z,100562.06
2022-12-25T17:11:33.444Z,100576.19
2022-12-25T17:16:37.708Z,100586.16
2022-12-25T17:21:42.185Z,100577.78
2022-12-25T17:26:45.784Z,100589.38
2022-12-25T17:31:51.676Z,100589.75
2022-12-25T17:36:56.079Z,100584.28
2022-12-25T17:41:59.111Z,100593.91
2022-12-25T17:47:02.141Z,100596.69
2022-12-25T17:52:06.506Z,100595.41
2022-12-25T17:57:09.517Z,100570.03
2022-12-25T18:02:12.567Z,100567.38
2022-12-25T18:07:17.545Z,100571.53
2022-12-25T18:12:20.479Z,100572.31
2022-12-25T18:17:23.420Z,100570.06
2022-12-25T18:22:27.880Z,100565.38
2022-12-25T18:27:30.865Z,100571.94
2022-12-25T18:32:33.930Z,100573.69
2022-12-25T18:37:40.139Z,100575.63
2022-12-25T18:42:46.217Z,100567.06
2022-12-25T18:47:49.528Z,100574.03
2022-12-25T18:52:53.935Z,100596.97
2022-12-25T18:57:57.729Z,100605.06
2022-12-25T19:03:00.894Z,100593.47
2022-12-25T19:08:05.668Z,100591.84
2022-12-25T19:13:08.861Z,100592.03
2022-12-25T19:18:11.996Z,100590.09
2022-12-25T19:23:16.269Z,100581.09
2022-12-25T19:28:19.289Z,100565.63
2022-12-25T19:33:22.831Z,100577.50
2022-12-25T19:38:27.293Z,100566.25
2022-12-25T19:43:30.971Z,100567.22
2022-12-25T19:48:35.804Z,100568.28
2022-12-25T19:53:40.168Z,100574.28
2022-12-25T19:58:43.542Z,100594.38
2022-12-25T20:03:47.018Z,100599.25
2022-12-25T20:08:53.538Z,100596.84
2022-12-25T20:13:56.560Z,100617.78
2022-12-25T20:18:59.778Z,100600.38
2022-12-25T20:24:09.224Z,100589.09
2022-12-25T20:29:12.202Z,100589.91
2022-12-25T20:34:15.112Z,100558.88
2022-12-25T20:39:19.503Z,100507.31
2022-12-25T20:44:22.567Z,100575.88
2022-12-25T20:49:25.633Z,100568.78
2022-12-25T20:54:29.885Z,100581.09
2022-12-25T20:59:37.464Z,100576.09
2022-12-25T21:04:41.170Z,100575.34
2022-12-25T21:09:46.106Z,100570.41
2022-12-25T21:14:49.044Z,100590.44
2022-12-25T21:19:53.118Z,100594.72
2022-12-25T21:24:57.518Z,100604.75
2022-12-25T21:30:00.468Z,100598.06
2022-12-25T21:35:18.625Z,100605.72
2022-12-25T21:40:22.991Z,100606.50
2022-12-25T21:45:25.994Z,100619.63
2022-12-25T21:50:46.448Z,100601.22
2022-12-25T21:56:02.446Z,100616.13
2022-12-25T22:01:06.319Z,100623.84
2022-12-25T22:06:27.014Z,100624.97
2022-12-25T22:11:48.805Z,100617.84
2022-12-25T22:17:09.483Z,100619.63
2022-12-25T22:22:13.239Z,100598.22
2022-12-25T22:27:18.051Z,100596.50
2022-12-25T22:32:22.153Z,100596.50
2022-12-25T22:37:25.336Z,100598.94
2022-12-25T22:42:29.910Z,100593.81
2022-12-25T22:47:33.153Z,100593.66
2022-12-25T22:52:36.186Z,100586.09
2022-12-25T22:57:40.599Z,100591.31
2022-12-25T23:02:43.849Z,100583.47
2022-12-25T23:07:46.845Z,100580.81
2022-12-25T23:13:08.408Z,100586.97
2022-12-25T23:18:28.766Z,100585.19
2022-12-25T23:23:49.015Z,100581.63
2022-12-25T23:29:10.929Z,100575.50
2022-12-25T23:34:13.971Z,100568.47
2022-12-25T23:39:16.936Z,100573.72
2022-12-25T23:44:21.939Z,100591.94
2022-12-25T23:49:25.752Z,100591.16
2022-12-25T23:54:31.108Z,100610.97
2022-12-25T23:59:35.463Z,100615.28
